createdAt,value
2018-06-05T00:00:06.940Z,8.90
2018-06-05T00:02:35.196Z,8.40
2018-06-05T00:05:04.482Z,8.70
2018-06-05T00:07:32.486Z,8.60
2018-06-05T00:10:00.776Z,8.48
2018-06-05T00:12:30.493Z,8.15
2018-06-05T00:14:58.533Z,8.48
2018-06-05T00:17:28.013Z,8.40
2018-06-05T00:19:56.120Z,8.65
2018-06-05T00:22:24.202Z,8.97
2018-06-05T00:24:52.285Z,8.50
2018-06-05T00:27:20.348Z,8.50
2018-06-05T00:29:48.426Z,8.00
2018-06-05T00:32:16.473Z,8.08
2018-06-05T00:34:44.580Z,8.30
2018-06-05T00:37:12.634Z,8.60
2018-06-05T00:39:40.686Z,9.20
2018-06-05T00:42:08.475Z,8.40
2018-06-05T00:44:36.625Z,9.50
2018-06-05T00:47:04.740Z,9.03
2018-06-05T00:49:32.816Z,9.23
2018-06-05T00:52:08.352Z,9.70
2018-06-05T00:54:36.421Z,10.78
2018-06-05T00:57:04.589Z,11.30
2018-06-05T00:59:32.676Z,10.98
2018-06-05T01:02:00.764Z,9.85
2018-06-05T01:04:28.907Z,9.60
2018-06-05T01:06:57.004Z,10.30
2018-06-05T01:09:25.078Z,10.45
2018-06-05T01:11:53.247Z,10.23
2018-06-05T01:14:21.333Z,11.20
2018-06-05T01:16:49.378Z,10.48
2018-06-05T01:19:17.549Z,11.47
2018-06-05T01:21:45.750Z,11.90
2018-06-05T01:24:13.825Z,12.05
2018-06-05T01:26:41.877Z,11.55
2018-06-05T01:29:10.065Z,11.57
2018-06-05T01:31:38.107Z,10.60
2018-06-05T01:34:06.223Z,11.28
2018-06-05T01:36:34.282Z,11.97
2018-06-05T01:39:02.528Z,11.85
2018-06-05T01:41:30.442Z,11.60
2018-06-05T01:43:58.544Z,11.93
2018-06-05T01:46:26.655Z,12.45
2018-06-05T01:48:54.757Z,11.70
2018-06-05T01:51:22.988Z,12.82
2018-06-05T01:53:50.784Z,12.20
2018-06-05T01:56:19.076Z,12.33
2018-06-05T01:58:47.161Z,13.70
2018-06-05T02:01:15.198Z,13.70
2018-06-05T02:03:43.302Z,13.00
2018-06-05T02:06:11.377Z,12.40
2018-06-05T02:08:39.415Z,12.58
2018-06-05T02:11:07.521Z,13.00
2018-06-05T02:13:35.604Z,12.07
2018-06-05T02:16:03.738Z,12.20
2018-06-05T02:18:31.944Z,13.20
2018-06-05T02:21:00.017Z,13.35
2018-06-05T02:23:28.174Z,13.60
2018-06-05T02:25:56.470Z,13.72
2018-06-05T02:28:24.551Z,13.38
2018-06-05T02:30:52.590Z,13.62
2018-06-05T02:33:20.697Z,13.20
2018-06-05T02:35:48.752Z,13.10
2018-06-05T02:38:16.820Z,13.93
2018-06-05T02:41:00.060Z,13.03
2018-06-05T02:43:37.636Z,12.28
2018-06-05T02:46:06.431Z,13.85
2018-06-05T02:48:35.450Z,13.50
2018-06-05T02:51:13.065Z,13.48
2018-06-05T02:53:53.443Z,14.38
2018-06-05T02:56:29.995Z,13.95
2018-06-05T02:58:58.902Z,14.65
2018-06-05T03:01:27.540Z,14.03
2018-06-05T03:04:06.744Z,13.45
2018-06-05T03:06:43.396Z,13.48
2018-06-05T03:09:23.479Z,14.00
2018-06-05T03:11:52.484Z,13.55
2018-06-05T03:14:32.528Z,13.67
2018-06-05T03:17:08.247Z,13.70
2018-06-05T03:19:44.385Z,14.58
2018-06-05T03:22:12.401Z,14.45
2018-06-05T03:24:55.001Z,14.40
2018-06-05T03:27:34.974Z,13.95
2018-06-05T03:30:14.316Z,14.18
2018-06-05T03:32:52.293Z,13.65
2018-06-05T03:35:29.313Z,13.85
2018-06-05T03:38:06.464Z,14.07
2018-06-05T03:40:37.362Z,14.87
2018-06-05T03:43:15.628Z,14.40
2018-06-05T03:45:56.638Z,14.38
2018-06-05T03:48:25.165Z,14.55
2018-06-05T03:50:53.275Z,14.13
2018-06-05T03:53:20.990Z,14.43
2018-06-05T03:55:48.900Z,14.75
2018-06-05T03:58:16.832Z,14.38
2018-06-05T04:00:44.765Z,15.05
2018-06-05T04:03:12.956Z,13.87
2018-06-05T04:05:41.052Z,13.45
2018-06-05T04:08:09.096Z,12.28
2018-06-05T04:10:37.181Z,13.05
2018-06-05T04:13:05.356Z,13.28
2018-06-05T04:15:33.510Z,12.90
2018-06-05T04:18:01.618Z,12.58
2018-06-05T04:20:29.676Z,13.20
2018-06-05T04:22:57.737Z,12.80
2018-06-05T04:25:25.819Z,13.03
2018-06-05T04:27:53.892Z,13.20
2018-06-05T04:30:22.045Z,12.90
2018-06-05T04:32:50.260Z,11.83
2018-06-05T04:35:18.329Z,13.80
2018-06-05T04:37:46.580Z,13.32
2018-06-05T04:40:14.807Z,12.85
2018-06-05T04:42:42.949Z,13.50
2018-06-05T04:45:11.003Z,12.70
2018-06-05T04:47:39.096Z,13.35
2018-06-05T04:50:07.381Z,13.30
2018-06-05T04:52:35.530Z,13.03
2018-06-05T04:55:03.628Z,13.25
2018-06-05T04:57:31.707Z,13.85
2018-06-05T04:59:59.748Z,14.90
2018-06-05T05:02:27.933Z,14.95
2018-06-05T05:04:56.027Z,14.25
2018-06-05T05:07:24.176Z,14.63
2018-06-05T05:09:52.268Z,14.90
2018-06-05T05:12:20.320Z,14.90
2018-06-05T05:14:48.427Z,14.65
2018-06-05T05:17:16.492Z,14.15
2018-06-05T05:19:44.528Z,14.30
2018-06-05T05:22:12.631Z,14.40
2018-06-05T05:24:40.711Z,13.62
2018-06-05T05:27:08.753Z,13.70
2018-06-05T05:29:36.862Z,14.05
2018-06-05T05:32:05.137Z,14.28
2018-06-05T05:34:33.285Z,14.30
2018-06-05T05:37:01.481Z,13.38
2018-06-05T05:39:29.579Z,13.65
2018-06-05T05:41:57.612Z,14.18
2018-06-05T05:44:25.711Z,14.43
2018-06-05T05:46:53.877Z,13.85
2018-06-05T05:49:21.924Z,14.28
2018-06-05T05:51:50.032Z,15.15
2018-06-05T05:54:18.088Z,14.38
2018-06-05T05:56:46.155Z,14.57
2018-06-05T05:59:14.236Z,14.68
2018-06-05T06:01:42.312Z,15.18
2018-06-05T06:04:10.468Z,14.78
2018-06-05T06:06:38.561Z,15.28
2018-06-05T06:09:07.561Z,15.25
2018-06-05T06:11:35.692Z,16.02
2018-06-05T06:14:03.814Z,16.73
2018-06-05T06:16:31.779Z,17.60
2018-06-05T06:18:59.940Z,16.97
2018-06-05T06:21:28.033Z,17.12
2018-06-05T06:23:56.104Z,16.00
2018-06-05T06:26:24.358Z,17.30
2018-06-05T06:28:52.462Z,17.20
2018-06-05T06:31:20.805Z,17.00
2018-06-05T06:33:48.910Z,17.65
2018-06-05T06:36:17.087Z,16.77
2018-06-05T06:38:45.139Z,16.70
2018-06-05T06:41:13.239Z,16.67
2018-06-05T06:43:41.299Z,16.95
2018-06-05T06:46:09.364Z,16.80
2018-06-05T06:48:37.499Z,16.87
2018-06-05T06:51:05.525Z,17.60
2018-06-05T06:53:33.468Z,17.80
2018-06-05T06:56:01.700Z,18.55
2018-06-05T06:58:29.756Z,18.23
2018-06-05T07:00:57.782Z,16.67
2018-06-05T07:03:25.993Z,16.42
2018-06-05T07:05:54.056Z,16.50
2018-06-05T07:08:22.208Z,16.82
2018-06-05T07:10:50.323Z,17.00
2018-06-05T07:13:18.360Z,16.60
2018-06-05T07:15:46.461Z,16.67
2018-06-05T07:18:14.524Z,17.67
2018-06-05T07:20:42.599Z,16.87
2018-06-05T07:23:10.651Z,16.95
2018-06-05T07:25:38.759Z,15.68
2018-06-05T07:28:06.820Z,16.82
2018-06-05T07:30:34.864Z,17.30
2018-06-05T07:33:02.765Z,16.32
2018-06-05T07:35:30.937Z,14.98
2018-06-05T07:37:58.976Z,16.77
2018-06-05T07:40:26.881Z,15.88
2018-06-05T07:42:54.952Z,15.78
2018-06-05T07:45:23.117Z,17.20
2018-06-05T07:47:51.293Z,18.55
2018-06-05T07:50:19.444Z,18.35
2018-06-05T07:52:47.239Z,17.50
2018-06-05T07:55:15.336Z,18.17
2018-06-05T07:57:43.371Z,17.85
2018-06-05T08:00:11.560Z,17.33
2018-06-05T08:02:39.636Z,18.12
2018-06-05T08:05:07.671Z,15.73
2018-06-05T08:37:37.489Z,13.53
2018-06-05T08:40:05.527Z,14.97
2018-06-05T08:42:33.573Z,13.87
2018-06-05T08:45:01.676Z,13.10
2018-06-05T08:47:29.747Z,14.00
2018-06-05T08:49:57.771Z,15.60
2018-06-05T08:52:25.893Z,13.03
2018-06-05T08:54:53.964Z,13.13
2018-06-05T08:57:22.012Z,12.90
2018-06-05T08:59:50.125Z,14.00
2018-06-05T09:02:18.279Z,11.70
2018-06-05T09:04:46.324Z,9.40
2018-06-05T09:07:14.120Z,9.97
2018-06-05T09:09:42.194Z,8.90
2018-06-05T09:12:10.235Z,9.07
2018-06-05T09:14:38.031Z,9.60
2018-06-05T09:17:06.118Z,9.70
2018-06-05T09:19:34.198Z,9.47
2018-06-05T09:22:02.367Z,9.60
2018-06-05T09:24:30.433Z,9.85
2018-06-05T09:26:58.476Z,9.98
2018-06-05T09:29:26.683Z,9.60
2018-06-05T09:31:54.728Z,10.43
2018-06-05T09:34:22.889Z,9.70
2018-06-05T09:36:50.902Z,9.88
2018-06-05T09:39:18.963Z,10.00
2018-06-05T09:41:47.057Z,9.70
2018-06-05T09:44:15.169Z,11.22
2018-06-05T09:46:43.280Z,10.30
2018-06-05T09:49:11.472Z,10.05
2018-06-05T09:51:39.743Z,9.90
2018-06-05T09:54:07.927Z,10.50
2018-06-05T09:56:35.966Z,10.53
2018-06-05T09:59:04.280Z,9.80
2018-06-05T10:01:32.426Z,11.97
2018-06-05T10:04:00.528Z,11.00
2018-06-05T10:06:28.608Z,10.65
2018-06-05T10:08:56.756Z,10.30
2018-06-05T10:11:25.060Z,9.50
2018-06-05T10:13:53.191Z,8.40
2018-06-05T10:16:20.959Z,9.10
2018-06-05T10:18:48.754Z,8.60
2018-06-05T10:21:16.912Z,7.30
2018-06-05T10:23:45.016Z,6.90
2018-06-05T10:26:13.083Z,7.00
2018-06-05T10:28:41.224Z,8.60
2018-06-05T10:31:09.118Z,9.20
2018-06-05T10:33:37.199Z,8.67
2018-06-05T10:36:05.252Z,7.70
2018-06-05T10:38:33.338Z,7.20
2018-06-05T10:41:01.408Z,6.77
2018-06-05T10:43:29.461Z,6.83
2018-06-05T10:45:57.561Z,6.80
2018-06-05T10:48:25.610Z,8.03
2018-06-05T10:50:53.808Z,7.50
2018-06-05T10:53:21.876Z,7.70
2018-06-05T10:55:50.061Z,7.70
2018-06-05T10:58:18.137Z,8.03
2018-06-05T11:00:46.173Z,7.90
2018-06-05T11:03:14.272Z,7.47
2018-06-05T11:05:42.353Z,7.80
2018-06-05T11:08:10.396Z,7.57
2018-06-05T11:10:38.183Z,8.07
2018-06-05T11:13:06.266Z,9.33
2018-06-05T11:15:34.422Z,8.10
2018-06-05T11:18:02.626Z,7.60
2018-06-05T11:20:30.893Z,7.97
2018-06-05T11:22:58.964Z,7.20
2018-06-05T11:25:27.140Z,6.70
2018-06-05T11:27:55.183Z,6.93
2018-06-05T11:30:22.985Z,7.43
2018-06-05T11:32:51.052Z,6.90
2018-06-05T11:35:19.108Z,7.03
2018-06-05T11:37:47.200Z,7.80
2018-06-05T11:40:15.269Z,7.70
2018-06-05T11:42:43.416Z,8.00
2018-06-05T11:45:11.312Z,8.00
2018-06-05T11:47:39.368Z,7.10
2018-06-05T11:50:07.469Z,8.30
2018-06-05T11:52:35.512Z,8.60
2018-06-05T11:55:03.826Z,8.53
2018-06-05T11:57:31.967Z,8.70
2018-06-05T12:00:00.060Z,7.50
2018-06-05T12:02:28.147Z,7.73
2018-06-05T12:04:56.192Z,6.67
2018-06-05T12:07:24.283Z,7.40
2018-06-05T12:09:52.520Z,7.80
2018-06-05T12:12:20.343Z,7.90
2018-06-05T12:14:48.410Z,7.67
2018-06-05T12:17:16.554Z,7.13
2018-06-05T12:19:44.635Z,7.10
2018-06-05T12:22:12.731Z,7.10
2018-06-05T12:24:40.768Z,6.90
2018-06-05T12:27:08.556Z,6.83
2018-06-05T12:29:36.613Z,7.60
2018-06-05T12:32:05.011Z,6.90
2018-06-05T12:34:33.089Z,6.47
2018-06-05T12:37:01.176Z,7.93
2018-06-05T12:39:29.239Z,7.43
2018-06-05T12:41:57.307Z,8.17
2018-06-05T12:44:25.372Z,8.20
2018-06-05T12:46:53.432Z,7.90
2018-06-05T12:49:21.527Z,7.80
2018-06-05T12:51:49.608Z,8.07
2018-06-05T12:54:17.643Z,7.33
2018-06-05T12:56:45.438Z,7.70
2018-06-05T12:59:13.519Z,7.80
2018-06-05T13:01:41.569Z,8.43
2018-06-05T13:04:09.654Z,7.63
2018-06-05T13:06:37.714Z,7.53
2018-06-05T13:09:07.510Z,7.43
2018-06-05T13:11:35.350Z,7.30
2018-06-05T13:14:03.666Z,8.70
2018-06-05T13:16:31.765Z,7.80
2018-06-05T13:18:59.837Z,6.80
2018-06-05T13:21:27.991Z,7.20
2018-06-05T13:23:56.157Z,6.90
2018-06-05T13:26:23.964Z,7.17
2018-06-05T13:28:52.006Z,7.30
2018-06-05T13:31:20.100Z,6.70
2018-06-05T13:33:48.261Z,6.57
2018-06-05T13:36:16.344Z,7.00
2018-06-05T13:38:44.456Z,6.97
2018-06-05T13:41:12.484Z,7.60
2018-06-05T13:43:40.566Z,7.07
2018-06-05T13:46:08.645Z,7.70
2018-06-05T13:48:36.808Z,7.30
2018-06-05T13:51:05.020Z,8.00
2018-06-05T13:53:33.047Z,7.60
2018-06-05T13:56:01.157Z,7.57
2018-06-05T13:58:29.220Z,7.83
2018-06-05T14:00:57.271Z,7.10
2018-06-05T14:03:25.363Z,7.83
2018-06-05T14:05:53.409Z,7.60
2018-06-05T14:08:21.612Z,7.00
2018-06-05T14:10:49.757Z,6.43
2018-06-05T14:13:17.552Z,7.13
2018-06-05T14:15:45.541Z,7.13
2018-06-05T14:18:13.710Z,7.17
2018-06-05T14:20:41.758Z,7.10
2018-06-05T14:23:09.631Z,6.93
2018-06-05T14:25:37.714Z,6.87
2018-06-05T14:28:05.778Z,7.40
2018-06-05T14:30:33.970Z,6.90
2018-06-05T14:33:02.112Z,7.40
2018-06-05T14:35:30.266Z,6.87
2018-06-05T14:37:58.096Z,7.20
2018-06-05T14:40:26.122Z,7.20
2018-06-05T14:42:54.024Z,6.63
2018-06-05T14:45:22.097Z,6.70
2018-06-05T14:47:50.185Z,7.33
2018-06-05T14:50:18.235Z,6.60
2018-06-05T14:52:46.252Z,6.10
2018-06-05T14:55:14.256Z,6.60
2018-06-05T14:57:42.365Z,6.73
2018-06-05T15:00:10.432Z,6.20
2018-06-05T15:02:38.579Z,6.93
2018-06-05T15:05:06.677Z,6.30
2018-06-05T15:07:34.748Z,6.80
2018-06-05T15:10:02.913Z,6.17
2018-06-05T15:12:31.105Z,6.07
2018-06-05T15:14:59.272Z,5.60
2018-06-05T15:17:27.332Z,6.03
2018-06-05T15:19:55.529Z,5.87
2018-06-05T15:22:23.595Z,4.87
2018-06-05T15:24:51.719Z,5.60
2018-06-05T15:27:19.732Z,5.80
2018-06-05T15:29:47.781Z,5.80
2018-06-05T15:32:15.583Z,5.80
2018-06-05T15:34:43.659Z,6.10
2018-06-05T15:37:11.792Z,5.50
2018-06-05T15:39:39.578Z,5.47
2018-06-05T15:42:07.677Z,5.40
2018-06-05T15:44:35.859Z,5.97
2018-06-05T15:47:03.912Z,5.10
2018-06-05T15:49:32.123Z,6.17
2018-06-05T15:52:00.172Z,5.37
2018-06-05T15:54:28.229Z,5.23
2018-06-05T15:56:56.431Z,5.17
2018-06-05T15:59:24.494Z,5.10
2018-06-05T16:01:52.544Z,5.10
2018-06-05T16:04:20.639Z,5.60
2018-06-05T16:06:48.671Z,5.33
2018-06-05T16:09:16.870Z,5.93
2018-06-05T16:11:44.973Z,5.27
2018-06-05T16:14:13.117Z,5.20
2018-06-05T16:16:41.221Z,4.80
2018-06-05T16:19:09.284Z,5.60
2018-06-05T16:21:37.340Z,5.40
2018-06-05T16:24:05.545Z,5.23
2018-06-05T16:26:33.615Z,5.10
2018-06-05T16:29:01.668Z,5.10
2018-06-05T16:31:29.752Z,5.70
2018-06-05T16:33:57.805Z,5.17
2018-06-05T16:36:25.901Z,5.00
2018-06-05T16:38:53.976Z,4.73
2018-06-05T16:41:22.028Z,5.10
2018-06-05T16:43:50.074Z,5.40
2018-06-05T16:46:17.901Z,5.63
2018-06-05T16:48:45.935Z,5.40
2018-06-05T16:51:14.028Z,5.63
2018-06-05T16:53:42.115Z,7.77
2018-06-05T16:56:10.169Z,6.57
2018-06-05T16:58:38.259Z,7.20
2018-06-05T17:01:06.346Z,6.80
2018-06-05T17:03:34.372Z,7.13
2018-06-05T17:06:02.159Z,7.57
2018-06-05T17:08:30.214Z,6.63
2018-06-05T17:10:58.203Z,6.90
2018-06-05T17:13:26.290Z,7.27
2018-06-05T17:15:54.333Z,6.27
2018-06-05T17:18:22.532Z,7.93
2018-06-05T17:20:50.616Z,8.10
2018-06-05T17:23:18.652Z,8.63
2018-06-05T17:25:46.555Z,8.63
2018-06-05T17:28:14.599Z,7.27
2018-06-05T17:30:42.496Z,8.37
2018-06-05T17:33:10.669Z,8.30
2018-06-05T17:35:38.721Z,8.90
2018-06-05T17:38:06.812Z,7.30
2018-06-05T17:40:34.889Z,8.57
2018-06-05T17:43:02.932Z,8.00
2018-06-05T17:45:31.054Z,7.83
2018-06-05T17:47:59.234Z,6.80
2018-06-05T17:50:27.246Z,7.07
2018-06-05T17:52:55.038Z,7.27
2018-06-05T17:55:23.119Z,6.50
2018-06-05T17:57:51.213Z,8.17
2018-06-05T18:00:19.275Z,7.43
2018-06-05T18:02:47.336Z,7.07
2018-06-05T18:05:15.496Z,7.30
2018-06-05T18:07:43.803Z,7.30
2018-06-05T18:10:11.852Z,7.17
2018-06-05T18:12:39.912Z,7.50
2018-06-05T18:15:08.117Z,7.07
2018-06-05T18:17:36.187Z,7.20
2018-06-05T18:20:04.237Z,6.00
2018-06-05T18:22:32.332Z,7.70
2018-06-05T18:25:00.416Z,7.00
2018-06-05T18:27:28.453Z,6.73
2018-06-05T18:29:56.566Z,7.13
2018-06-05T18:32:24.629Z,7.67
2018-06-05T18:34:52.728Z,7.60
2018-06-05T18:37:20.900Z,7.87
2018-06-05T18:39:48.852Z,6.93
2018-06-05T18:42:16.900Z,6.70
2018-06-05T18:44:44.992Z,6.73
2018-06-05T18:47:13.086Z,6.87
2018-06-05T18:49:41.161Z,7.17
2018-06-05T18:52:09.222Z,7.05
2018-06-05T18:54:37.276Z,7.73
2018-06-05T18:57:05.470Z,7.37
2018-06-05T18:59:33.538Z,8.63
2018-06-05T19:02:01.696Z,8.88
2018-06-05T19:04:29.784Z,8.65
2018-06-05T19:06:57.956Z,8.55
2018-06-05T19:09:26.159Z,8.70
2018-06-05T19:11:54.164Z,8.65
2018-06-05T19:14:22.178Z,8.68
2018-06-05T19:16:50.230Z,8.50
2018-06-05T19:19:18.332Z,8.40
2018-06-05T19:21:46.408Z,8.38
2018-06-05T19:24:14.580Z,9.18
2018-06-05T19:26:42.644Z,8.53
2018-06-05T19:29:10.751Z,8.28
2018-06-05T19:31:38.977Z,8.90
2018-06-05T19:34:07.172Z,8.80
2018-06-05T19:36:35.256Z,7.90
2018-06-05T19:39:05.048Z,9.00
2018-06-05T19:41:33.155Z,9.20
2018-06-05T19:44:01.209Z,9.10
2018-06-05T19:46:29.380Z,8.75
2018-06-05T19:48:57.456Z,8.68
2018-06-05T19:51:25.549Z,9.43
2018-06-05T19:53:53.591Z,9.63
2018-06-05T19:56:21.682Z,10.53
2018-06-05T19:58:49.830Z,10.38
2018-06-05T20:01:17.961Z,10.25
2018-06-05T20:03:45.972Z,9.93
2018-06-05T20:06:14.053Z,9.33
2018-06-05T20:08:42.160Z,9.20
2018-06-05T20:11:10.248Z,9.00
2018-06-05T20:13:38.275Z,9.30
2018-06-05T20:16:06.565Z,9.00
2018-06-05T20:18:36.604Z,9.10
2018-06-05T20:21:04.746Z,9.30
2018-06-05T20:23:32.837Z,10.45
2018-06-05T20:26:01.036Z,10.60
2018-06-05T20:28:29.185Z,11.28
2018-06-05T20:30:57.148Z,11.60
2018-06-05T20:33:25.241Z,11.90
2018-06-05T20:37:37.752Z,11.85
2018-06-05T20:40:05.830Z,10.70
2018-06-05T20:42:33.911Z,10.23
2018-06-05T20:45:02.069Z,10.53
2018-06-05T20:47:30.161Z,10.05
2018-06-05T20:49:58.272Z,10.20
2018-06-05T20:52:26.386Z,9.88
2018-06-05T20:54:54.473Z,11.40
2018-06-05T20:57:22.357Z,10.33
2018-06-05T20:59:50.275Z,10.27
2018-06-05T21:02:18.023Z,10.32
2018-06-05T21:04:46.033Z,10.80
2018-06-05T21:07:14.133Z,10.80
2018-06-05T21:09:42.206Z,11.08
2018-06-05T21:12:10.265Z,10.43
2018-06-05T21:14:38.321Z,11.18
2018-06-05T21:17:06.584Z,11.40
2018-06-05T21:19:34.386Z,11.68
2018-06-05T21:22:02.432Z,11.60
2018-06-05T21:24:30.532Z,11.75
2018-06-05T21:26:58.613Z,11.50
2018-06-05T21:29:26.757Z,11.48
2018-06-05T21:31:54.852Z,11.67
2018-06-05T21:34:22.942Z,13.58
2018-06-05T21:36:50.969Z,12.98
2018-06-05T21:39:18.976Z,14.03
2018-06-05T21:41:47.028Z,13.50
2018-06-05T21:44:15.111Z,12.55
2018-06-05T21:46:43.188Z,11.15
2018-06-05T21:49:11.253Z,12.03
2018-06-05T21:51:39.352Z,11.73
2018-06-05T21:54:07.535Z,11.43
2018-06-05T21:56:35.568Z,11.12
2018-06-05T21:59:03.615Z,11.10
2018-06-05T22:01:31.732Z,11.60
2018-06-05T22:03:59.780Z,11.17
2018-06-05T22:06:27.886Z,11.65
2018-06-05T22:08:56.063Z,11.97
2018-06-05T22:11:24.105Z,12.27
2018-06-05T22:13:52.215Z,12.53
2018-06-05T22:16:20.368Z,12.98
2018-06-05T22:18:48.427Z,13.55
2018-06-05T22:21:16.344Z,14.23
2018-06-05T22:23:44.246Z,14.75
2018-06-05T22:26:11.976Z,13.75
2018-06-05T22:28:39.895Z,13.48
2018-06-05T22:31:07.731Z,13.00
2018-06-05T22:33:35.653Z,13.15
2018-06-05T22:36:03.572Z,12.40
2018-06-05T22:38:31.591Z,13.28
2018-06-05T22:40:59.685Z,13.40
2018-06-05T22:43:29.547Z,13.70
2018-06-05T22:45:59.045Z,13.83
2018-06-05T22:48:27.271Z,13.90
2018-06-05T22:50:55.327Z,13.50
2018-06-05T22:53:23.449Z,13.68
2018-06-05T22:55:51.585Z,13.22
2018-06-05T22:58:19.456Z,14.40
2018-06-05T23:00:47.363Z,14.70
2018-06-05T23:03:15.285Z,14.80
2018-06-05T23:05:43.193Z,14.33
2018-06-05T23:08:11.126Z,14.83
2018-06-05T23:10:39.064Z,15.70
2018-06-05T23:13:06.949Z,14.47
2018-06-05T23:15:34.852Z,14.20
2018-06-05T23:18:02.776Z,14.93
2018-06-05T23:20:30.686Z,14.70
2018-06-05T23:22:58.591Z,15.08
2018-06-05T23:25:26.512Z,14.68
2018-06-05T23:27:54.405Z,14.60
2018-06-05T23:30:22.312Z,15.85
2018-06-05T23:32:50.211Z,15.30
2018-06-05T23:35:18.119Z,16.70
2018-06-05T23:37:46.017Z,16.02
2018-06-05T23:40:13.950Z,16.48
2018-06-05T23:42:41.842Z,16.27
2018-06-05T23:45:09.785Z,16.30
2018-06-05T23:47:37.862Z,16.60
2018-06-05T23:50:06.133Z,16.23
2018-06-05T23:52:34.218Z,16.80
2018-06-05T23:55:02.361Z,16.57
2018-06-05T23:57:30.448Z,17.00
2018-06-05T23:59:58.536Z,16.20
